Time;durP1;ratioP1;P1;durP2;ratioP2;P2;SDS_P1;SDS_P2;PMS_P1;PMS_P2;Temp;Humidity;BMP_temperature;BMP_pressure;BME280_temperature;BME280_humidity;BME280_pressure;Samples;Min_cycle;Max_cycle;Signal;HPM_P1;HPM_P2
2023/02/26 05:32:14;;;;;;;2.17;2.03;;;3.30;66.90;;;;;;6120135;23;20431;-78
2023/02/26 05:34:39;;;;;;;4.43;3.30;;;3.20;66.90;;;;;;6126390;23;20029;-77
2023/02/26 05:37:05;;;;;;;4.65;2.10;;;3.20;66.60;;;;;;6128461;23;20447;-77
2023/02/26 05:39:31;;;;;;;3.60;2.60;;;3.20;66.80;;;;;;6128739;23;20534;-77
2023/02/26 05:41:56;;;;;;;8.15;3.13;;;3.20;66.60;;;;;;6128483;23;20008;-77
2023/02/26 05:44:22;;;;;;;4.20;2.58;;;3.20;66.70;;;;;;6128298;23;20009;-77
2023/02/26 05:46:48;;;;;;;6.35;1.80;;;3.20;66.50;;;;;;6102111;23;20037;-78
2023/02/26 05:49:13;;;;;;;5.53;3.33;;;3.20;66.60;;;;;;6102526;23;20010;-78
2023/02/26 05:51:41;;;;;;;2.70;1.88;;;3.20;66.20;;;;;;6128533;23;20009;-78
2023/02/26 05:54:07;;;;;;;3.45;1.90;;;3.10;66.10;;;;;;6102237;23;20702;-77
2023/02/26 05:56:33;;;;;;;7.20;2.25;;;3.20;65.90;;;;;;6102361;23;20012;-77
2023/02/26 05:58:58;;;;;;;2.50;2.22;;;3.20;65.80;;;;;;6128719;23;20006;-77
2023/02/26 06:01:24;;;;;;;3.25;2.17;;;3.10;65.70;;;;;;6127171;23;20009;-77
2023/02/26 06:03:50;;;;;;;4.30;2.45;;;3.20;65.70;;;;;;6127029;23;20002;-77
2023/02/26 06:06:17;;;;;;;6.43;3.22;;;3.20;65.40;;;;;;6128750;23;20037;-77
2023/02/26 06:08:43;;;;;;;13.65;2.30;;;3.20;65.30;;;;;;6128496;23;20005;-77
2023/02/26 06:11:09;;;;;;;19.55;3.58;;;3.20;65.20;;;;;;6129047;23;19998;-76
2023/02/26 06:13:38;;;;;;;4.50;2.88;;;3.10;65.10;;;;;;6128592;23;20360;-77
2023/02/26 06:16:04;;;;;;;6.85;3.15;;;3.10;65.10;;;;;;6102710;23;20010;-76
2023/02/26 06:18:31;;;;;;;10.45;2.58;;;3.20;65.10;;;;;;6128376;23;20013;-77
2023/02/26 06:20:57;;;;;;;3.22;2.72;;;3.20;64.90;;;;;;6128789;23;20036;-77
2023/02/26 06:23:22;;;;;;;2.83;2.63;;;3.20;64.80;;;;;;6128887;23;20010;-77
2023/02/26 06:25:51;;;;;;;3.22;2.67;;;3.20;64.60;;;;;;6128773;23;20026;-77
2023/02/26 06:28:17;;;;;;;5.00;2.97;;;3.20;64.60;;;;;;6128806;23;20005;-77
2023/02/26 06:30:43;;;;;;;1.83;1.73;;;3.10;64.30;;;;;;6128557;23;20037;-76
2023/02/26 06:33:08;;;;;;;2.92;2.70;;;3.10;64.30;;;;;;6128875;23;20379;-76
2023/02/26 06:35:34;;;;;;;15.18;3.35;;;3.10;64.40;;;;;;6102580;23;20431;-77
2023/02/26 06:38:00;;;;;;;3.97;2.55;;;3.10;64.10;;;;;;6128602;23;20465;-76
2023/02/26 06:40:25;;;;;;;9.88;2.72;;;3.10;64.20;;;;;;6128959;23;20018;-76
2023/02/26 06:42:51;;;;;;;6.57;2.58;;;3.10;64.10;;;;;;6128302;23;20013;-77
2023/02/26 06:45:17;;;;;;;2.13;1.80;;;3.10;64.20;;;;;;6102851;23;20010;-78
2023/02/26 06:47:43;;;;;;;3.50;2.40;;;3.10;64.00;;;;;;6128921;23;20016;-77
2023/02/26 06:50:09;;;;;;;2.45;2.08;;;3.00;63.80;;;;;;6129080;23;20029;-77
2023/02/26 06:52:35;;;;;;;5.35;2.97;;;3.00;63.60;;;;;;6128594;23;20013;-77
2023/02/26 06:55:01;;;;;;;3.03;2.05;;;3.00;63.80;;;;;;6129822;23;20029;-77
2023/02/26 06:57:27;;;;;;;4.43;2.28;;;2.90;63.80;;;;;;6130466;23;20006;-77
2023/02/26 06:59:53;;;;;;;12.52;3.10;;;3.00;63.70;;;;;;6130401;23;20013;-77
2023/02/26 07:02:20;;;;;;;7.28;2.90;;;3.00;63.60;;;;;;6130505;23;20086;-77
2023/02/26 07:04:46;;;;;;;12.68;5.68;;;3.00;63.20;;;;;;6130313;23;20514;-77
2023/02/26 07:07:12;;;;;;;4.28;3.88;;;3.00;63.40;;;;;;6130212;23;20024;-77
2023/02/26 07:09:38;;;;;;;6.35;4.28;;;3.00;63.00;;;;;;6130450;23;20029;-77
2023/02/26 07:12:06;;;;;;;10.18;6.70;;;2.90;62.80;;;;;;6130296;23;20002;-77
2023/02/26 07:14:32;;;;;;;7.03;3.63;;;2.90;62.80;;;;;;6130206;23;20080;-76
2023/02/26 07:16:59;;;;;;;6.85;4.95;;;2.90;62.70;;;;;;6103114;23;20037;-78
2023/02/26 07:19:25;;;;;;;17.17;8.05;;;2.90;62.60;;;;;;6104335;23;20013;-78
2023/02/26 07:21:51;;;;;;;23.25;12.80;;;2.90;62.70;;;;;;6103864;23;20006;-78
2023/02/26 07:24:16;;;;;;;10.93;5.88;;;2.90;62.20;;;;;;6130351;23;20113;-78
2023/02/26 07:26:42;;;;;;;3.58;3.10;;;2.90;62.40;;;;;;6104159;23;20468;-79
2023/02/26 07:29:08;;;;;;;8.55;4.10;;;3.00;62.20;;;;;;6103654;23;20013;-79
2023/02/26 07:31:33;;;;;;;5.00;4.10;;;3.00;61.90;;;;;;6129380;23;20021;-77
2023/02/26 07:33:59;;;;;;;9.85;4.78;;;3.10;61.70;;;;;;6129449;23;20073;-83
2023/02/26 07:36:27;;;;;;;4.85;2.88;;;3.10;61.80;;;;;;6130614;23;20006;-88
2023/02/26 07:38:53;;;;;;;4.88;3.88;;;3.40;61.10;;;;;;6129857;23;20088;-83
2023/02/26 07:41:18;;;;;;;4.85;4.00;;;4.20;59.60;;;;;;6130186;23;20002;-81
2023/02/26 07:43:45;;;;;;;2.65;2.30;;;4.90;56.60;;;;;;6129864;23;20442;-82
2023/02/26 07:46:11;;;;;;;11.52;3.50;;;4.80;56.50;;;;;;6103928;23;20014;-89
2023/02/26 07:48:37;;;;;;;4.70;3.00;;;4.50;57.10;;;;;;6103712;23;20013;-87
2023/02/26 07:51:03;;;;;;;3.80;3.38;;;4.20;57.50;;;;;;6130214;23;20012;-81
2023/02/26 07:53:29;;;;;;;4.63;3.60;;;4.60;57.80;;;;;;6103819;23;20010;-78
2023/02/26 07:55:55;;;;;;;5.95;3.65;;;6.50;54.50;;;;;;6130315;23;20009;-85
2023/02/26 07:58:21;;;;;;;5.15;2.83;;;8.10;50.00;;;;;;6106312;23;20018;-90
2023/02/26 08:00:47;;;;;;;9.48;2.85;;;9.20;47.00;;;;;;6102664;23;20460;-79
2023/02/26 08:03:14;;;;;;;3.00;1.77;;;9.70;43.90;;;;;;6127518;23;20064;-79
2023/02/26 08:05:39;;;;;;;8.50;3.42;;;9.70;43.90;;;;;;6128558;23;20002;-78
2023/02/26 08:08:05;;;;;;;4.43;3.88;;;9.50;43.10;;;;;;6127155;23;20327;-80
2023/02/26 08:10:31;;;;;;;4.97;2.05;;;8.90;44.20;;;;;;6101701;23;20005;-80
2023/02/26 08:12:57;;;;;;;7.00;2.97;;;9.50;44.40;;;;;;6128673;23;20006;-80
2023/02/26 08:15:23;;;;;;;6.47;1.95;;;9.90;42.00;;;;;;6128399;23;20006;-82
2023/02/26 08:17:51;;;;;;;5.55;2.45;;;9.50;42.10;;;;;;6127677;23;20033;-79
2023/02/26 08:20:17;;;;;;;7.75;2.97;;;9.40;43.10;;;;;;6101830;23;20013;-77
2023/02/26 08:22:43;;;;;;;3.72;1.88;;;9.50;43.40;;;;;;6128412;23;20006;-77
2023/02/26 08:25:08;;;;;;;6.95;2.13;;;9.40;43.20;;;;;;6127915;23;19998;-77
2023/02/26 08:27:34;;;;;;;6.35;2.55;;;9.30;42.60;;;;;;6100932;23;20014;-82
2023/02/26 08:30:00;;;;;;;6.43;2.97;;;9.70;42.80;;;;;;6092532;23;20033;-80
2023/02/26 08:32:26;;;;;;;5.80;2.95;;;10.10;42.20;;;;;;6125101;23;20017;-86
2023/02/26 08:34:52;;;;;;;3.90;2.67;;;10.50;41.60;;;;;;6101175;23;20012;-80
2023/02/26 08:37:21;;;;;;;6.07;2.78;;;10.30;41.40;;;;;;6101692;23;20006;-80
2023/02/26 08:39:47;;;;;;;8.50;4.15;;;10.30;41.80;;;;;;6102134;23;20010;-80
2023/02/26 08:42:15;;;;;;;7.15;3.08;;;10.50;41.50;;;;;;6127419;23;20002;-82
2023/02/26 08:44:41;;;;;;;5.70;2.70;;;10.50;40.90;;;;;;6128166;23;20069;-82
2023/02/26 08:47:07;;;;;;;5.50;2.53;;;10.60;40.40;;;;;;6127943;23;20009;-81
2023/02/26 08:49:33;;;;;;;3.97;2.00;;;11.00;39.70;;;;;;6127075;23;19998;-81
2023/02/26 08:51:59;;;;;;;5.97;2.40;;;11.70;39.50;;;;;;6102787;23;20010;-77
2023/02/26 08:54:24;;;;;;;3.58;2.33;;;12.00;38.00;;;;;;6128942;23;20049;-80
2023/02/26 08:56:52;;;;;;;9.40;3.05;;;11.80;37.80;;;;;;6100108;23;20334;-78
2023/02/26 08:59:18;;;;;;;6.13;2.38;;;12.00;38.30;;;;;;6127444;23;20013;-80
2023/02/26 09:01:44;;;;;;;4.03;2.58;;;12.30;37.70;;;;;;6127854;23;20083;-79
2023/02/26 09:04:09;;;;;;;4.40;1.98;;;12.40;36.40;;;;;;6102108;23;20006;-80
2023/02/26 09:06:35;;;;;;;5.60;3.22;;;12.30;37.60;;;;;;6127985;23;20006;-80
2023/02/26 09:09:01;;;;;;;6.10;2.83;;;12.30;35.90;;;;;;6121249;23;20004;-81
2023/02/26 09:11:29;;;;;;;5.10;3.38;;;11.90;37.10;;;;;;6121926;23;20293;-79
2023/02/26 09:13:55;;;;;;;8.23;2.85;;;12.00;37.50;;;;;;6121751;23;20010;-79
2023/02/26 09:16:21;;;;;;;4.60;2.35;;;12.20;37.60;;;;;;6127841;23;20002;-80
2023/02/26 09:18:49;;;;;;;5.07;2.63;;;12.00;36.60;;;;;;6096094;23;20017;-80
2023/02/26 09:21:14;;;;;;;5.35;3.72;;;11.90;36.40;;;;;;6102627;23;20065;-79
2023/02/26 09:23:40;;;;;;;3.38;2.60;;;11.50;37.00;;;;;;6102479;23;20017;-79
2023/02/26 09:26:07;;;;;;;8.55;2.58;;;11.70;37.40;;;;;;6100186;23;20010;-81
2023/02/26 09:28:33;;;;;;;4.65;2.50;;;12.20;37.20;;;;;;6126789;23;20025;-79
2023/02/26 09:30:59;;;;;;;5.22;2.67;;;12.80;36.40;;;;;;6106094;23;20018;-78
2023/02/26 09:33:25;;;;;;;3.58;1.95;;;12.90;35.00;;;;;;6126988;23;20063;-79
2023/02/26 09:35:51;;;;;;;3.90;2.33;;;13.50;34.70;;;;;;6125040;23;20009;-79
2023/02/26 09:38:18;;;;;;;5.93;2.63;;;14.00;34.30;;;;;;6127029;23;19998;-79
2023/02/26 09:41:05;;;;;;;5.25;2.47;;;14.40;33.40;;;;;;6127461;23;20002;-80
2023/02/26 09:43:37;;;;;;;6.90;2.35;;;14.60;32.70;;;;;;6126506;23;20367;-79
2023/02/26 09:46:27;;;;;;;6.63;2.80;;;14.80;33.00;;;;;;6125935;23;20002;-79
2023/02/26 09:49:04;;;;;;;6.22;2.45;;;15.10;32.20;;;;;;6128191;23;20002;-80
2023/02/26 09:51:32;;;;;;;12.15;6.50;;;15.20;32.50;;;;;;6126519;23;20006;-79
2023/02/26 09:53:59;;;;;;;6.30;3.38;;;15.40;31.40;;;;;;6126467;23;20450;-79
2023/02/26 09:56:26;;;;;;;4.00;1.90;;;15.80;31.40;;;;;;6126821;23;20010;-80
2023/02/26 09:58:54;;;;;;;4.82;2.63;;;15.70;30.20;;;;;;6128241;23;20338;-83
2023/02/26 10:01:42;;;;;;;7.82;2.67;;;15.70;31.40;;;;;;6126433;23;20128;-81
2023/02/26 10:04:14;;;;;;;6.13;3.58;;;15.60;31.00;;;;;;6127393;23;20085;-80
2023/02/26 10:06:46;;;;;;;3.30;2.97;;;14.80;30.90;;;;;;6128318;23;20088;-80
2023/02/26 10:09:21;;;;;;;6.13;2.20;;;14.60;32.20;;;;;;6128498;23;20098;-80
2023/02/26 10:11:56;;;;;;;4.63;2.25;;;14.40;32.20;;;;;;6128026;23;20008;-80
2023/02/26 10:14:31;;;;;;;2.50;1.65;;;14.20;32.70;;;;;;6127888;23;20402;-81
2023/02/26 10:17:04;;;;;;;3.88;2.55;;;13.50;32.70;;;;;;6127978;23;20339;-80
2023/02/26 10:19:35;;;;;;;4.57;1.05;;;13.10;33.20;;;;;;6126183;23;20006;-79
2023/02/26 10:22:16;;;;;;;2.78;0.60;;;12.60;33.00;;;;;;6127716;23;20077;-79
2023/02/26 10:24:48;;;;;;;6.22;1.30;;;12.30;33.20;;;;;;6128098;23;20009;-79
2023/02/26 10:27:19;;;;;;;2.35;1.10;;;11.90;34.10;;;;;;6127690;23;20014;-83
2023/02/26 10:30:01;;;;;;;1.73;0.90;;;11.30;35.10;;;;;;6128355;23;20339;-85
2023/02/26 10:32:29;;;;;;;4.43;1.40;;;10.80;35.50;;;;;;6129431;23;20010;-86
2023/02/26 10:34:59;;;;;;;2.97;1.40;;;10.10;35.80;;;;;;6130428;23;20002;-91
2023/02/26 10:37:35;;;;;;;3.22;1.27;;;9.80;37.90;;;;;;6106344;23;20006;-88
2023/02/26 10:40:28;;;;;;;6.65;1.38;;;9.60;37.70;;;;;;6132423;23;20017;-86
2023/02/26 10:43:02;;;;;;;1.40;1.10;;;9.50;38.70;;;;;;6131751;23;20431;-87
2023/02/26 10:45:56;;;;;;;2.63;1.30;;;9.30;39.90;;;;;;6131145;23;20002;-87
2023/02/26 10:48:51;;;;;;;1.92;1.50;;;9.40;39.70;;;;;;6131604;23;20002;-87
2023/02/26 10:51:20;;;;;;;2.83;1.27;;;9.40;40.20;;;;;;6063257;23;20036;-87
2023/02/26 10:53:55;;;;;;;4.25;1.10;;;9.20;39.80;;;;;;6130919;23;20002;-87
2023/02/26 10:56:32;;;;;;;4.13;1.55;;;9.20;41.00;;;;;;6103787;23;20012;-86
2023/02/26 10:58:58;;;;;;;2.63;1.08;;;9.10;41.80;;;;;;6130894;23;20077;-87
2023/02/26 11:01:26;;;;;;;2.80;1.20;;;9.20;42.30;;;;;;6130965;23;20002;-89
2023/02/26 11:04:14;;;;;;;5.00;1.77;;;9.20;41.50;;;;;;6130150;23;20080;-87
2023/02/26 11:06:46;;;;;;;5.35;1.83;;;9.00;41.70;;;;;;6132008;23;20430;-88
2023/02/26 11:09:42;;;;;;;2.75;1.33;;;8.90;41.60;;;;;;6106344;23;20029;-89
2023/02/26 11:12:11;;;;;;;7.50;1.70;;;8.90;42.00;;;;;;6131400;23;20061;-86
2023/02/26 11:14:38;;;;;;;4.35;1.52;;;9.00;42.30;;;;;;6105380;23;20018;-88
2023/02/26 11:17:10;;;;;;;4.00;1.42;;;9.00;42.50;;;;;;6104951;23;20087;-84
2023/02/26 11:19:48;;;;;;;2.03;1.25;;;8.90;41.90;;;;;;6130911;23;20006;-83
2023/02/26 11:22:14;;;;;;;1.88;1.60;;;8.80;42.50;;;;;;6130886;23;20069;-82
2023/02/26 11:24:45;;;;;;;2.85;1.85;;;8.90;43.10;;;;;;6106685;23;20534;-79
2023/02/26 11:27:19;;;;;;;4.05;1.98;;;9.00;42.70;;;;;;6107709;23;20040;-77
2023/02/26 11:29:54;;;;;;;3.00;1.30;;;9.40;42.60;;;;;;6104345;23;20443;-80
2023/02/26 11:32:32;;;;;;;2.30;1.40;;;9.70;41.90;;;;;;6126079;23;20040;-81
2023/02/26 11:34:58;;;;;;;2.00;1.05;;;9.70;42.00;;;;;;6129598;23;20029;-80
2023/02/26 11:37:35;;;;;;;1.98;1.30;;;9.80;42.30;;;;;;6131320;23;20324;-80
2023/02/26 11:40:16;;;;;;;2.20;1.45;;;9.80;42.10;;;;;;6130176;23;20006;-80
2023/02/26 11:43:04;;;;;;;2.72;1.65;;;9.60;42.00;;;;;;6130226;23;20395;-80
2023/02/26 11:45:33;;;;;;;3.97;1.77;;;9.50;42.60;;;;;;6131518;23;20092;-80
2023/02/26 11:48:03;;;;;;;4.70;1.50;;;9.50;42.80;;;;;;6131366;23;20009;-80
2023/02/26 11:50:30;;;;;;;4.20;1.98;;;9.40;42.70;;;;;;6131369;23;20439;-80
2023/02/26 11:53:03;;;;;;;3.45;1.70;;;9.30;43.00;;;;;;6130390;23;20029;-80
2023/02/26 11:55:35;;;;;;;4.80;2.05;;;9.40;42.70;;;;;;6129051;23;20095;-80
2023/02/26 11:58:04;;;;;;;3.47;2.08;;;9.30;42.60;;;;;;6130454;23;20017;-78
2023/02/26 12:00:35;;;;;;;1.83;1.70;;;9.10;42.80;;;;;;6129870;23;20009;-78
2023/02/26 12:03:03;;;;;;;4.40;2.00;;;8.90;43.30;;;;;;6130148;23;20002;-78
2023/02/26 12:05:30;;;;;;;6.88;1.77;;;8.80;43.20;;;;;;6130773;23;20009;-80
2023/02/26 12:07:57;;;;;;;3.38;1.52;;;8.80;43.70;;;;;;6130462;23;20017;-80
2023/02/26 12:10:47;;;;;;;4.20;2.33;;;8.80;43.20;;;;;;6130682;23;20747;-80
2023/02/26 12:13:31;;;;;;;6.13;2.22;;;8.90;43.10;;;;;;6127860;23;20191;-80
2023/02/26 12:16:24;;;;;;;3.25;2.13;;;9.00;42.90;;;;;;6129261;23;20001;-80
2023/02/26 12:19:00;;;;;;;3.85;2.58;;;9.10;41.90;;;;;;6129368;23;20347;-80
2023/02/26 12:21:47;;;;;;;3.65;2.65;;;9.20;41.90;;;;;;6129248;23;20038;-80
2023/02/26 12:24:22;;;;;;;3.83;2.20;;;9.30;42.40;;;;;;6129442;23;20001;-80
2023/02/26 12:27:05;;;;;;;3.30;1.77;;;9.50;42.50;;;;;;6129480;23;20097;-81
2023/02/26 12:29:46;;;;;;;3.15;1.90;;;9.60;41.10;;;;;;6129508;23;20006;-81
2023/02/26 12:32:32;;;;;;;4.50;1.42;;;9.40;36.70;;;;;;6129497;23;20080;-80
2023/02/26 12:35:04;;;;;;;3.22;1.90;;;9.20;37.40;;;;;;6128664;23;20013;-81
2023/02/26 12:37:50;;;;;;;1.30;1.20;;;9.20;35.30;;;;;;6129238;23;20407;-80
2023/02/26 12:40:43;;;;;;;3.53;1.13;;;9.20;35.20;;;;;;6129072;23;20065;-81
2023/02/26 12:43:43;;;;;;;1.75;1.35;;;9.30;33.70;;;;;;6103534;23;20006;-80
2023/02/26 12:46:20;;;;;;;2.20;1.65;;;9.40;32.70;;;;;;6128725;23;20006;-81
2023/02/26 12:49:16;;;;;;;5.80;1.30;;;9.20;32.30;;;;;;6129098;23;20066;-80
2023/02/26 12:52:23;;;;;;;1.20;1.10;;;9.20;32.70;;;;;;6129449;23;20008;-81
2023/02/26 12:55:07;;;;;;;2.85;1.15;;;9.20;32.90;;;;;;6128645;23;20548;-80
2023/02/26 12:57:48;;;;;;;1.92;1.40;;;9.20;33.10;;;;;;6129249;23;20017;-81
2023/02/26 13:00:19;;;;;;;1.42;1.17;;;9.20;33.00;;;;;;6129200;23;20030;-80
2023/02/26 13:03:15;;;;;;;2.88;1.38;;;9.20;33.80;;;;;;6128701;23;20002;-80
2023/02/26 13:06:17;;;;;;;7.18;3.10;;;9.30;33.80;;;;;;6129048;23;20006;-80
2023/02/26 13:08:52;;;;;;;11.15;6.75;;;9.20;33.70;;;;;;6128817;23;20018;-80
2023/02/26 13:11:49;;;;;;;7.65;2.90;;;9.10;33.70;;;;;;6128966;23;20405;-81
2023/02/26 13:14:32;;;;;;;4.07;3.05;;;9.20;34.10;;;;;;6128976;23;20062;-81
2023/02/26 13:17:27;;;;;;;3.92;2.22;;;9.20;34.30;;;;;;6128787;23;20006;-80
2023/02/26 13:20:11;;;;;;;6.88;2.67;;;9.30;35.60;;;;;;6102716;23;20056;-81
2023/02/26 13:23:12;;;;;;;4.30;1.70;;;9.50;35.40;;;;;;6128781;23;20145;-82
2023/02/26 13:25:37;;;;;;;;;;;9.50;33.80;;;;;;6098604;23;20320;-81
2023/02/26 13:28:18;;;;;;;5.65;3.05;;;9.40;33.00;;;;;;6128546;23;19928;-81
2023/02/26 13:30:47;;;;;;;;;;;9.50;33.60;;;;;;6128969;23;20458;-81
2023/02/26 13:33:30;;;;;;;5.25;3.38;;;9.60;33.90;;;;;;6128892;23;19901;-81
2023/02/26 13:35:59;;;;;;;5.95;2.50;;;9.70;33.60;;;;;;6128967;23;20062;-81
2023/02/26 13:38:45;;;;;;;6.30;3.80;;;9.70;33.70;;;;;;6128575;23;20061;-81
2023/02/26 13:41:15;;;;;;;5.30;4.80;;;9.80;33.30;;;;;;6129302;23;20029;-82
2023/02/26 13:44:02;;;;;;;5.13;2.63;;;9.70;31.80;;;;;;6122993;23;20006;-81
2023/02/26 13:46:57;;;;;;;3.47;1.92;;;9.70;32.00;;;;;;6128531;23;20006;-81
2023/02/26 13:50:09;;;;;;;2.17;1.75;;;9.70;31.90;;;;;;6128105;23;20012;-81
2023/02/26 13:52:35;;;;;;;5.00;3.15;;;9.60;31.10;;;;;;6128780;23;19998;-81
2023/02/26 13:55:04;;;;;;;2.25;1.60;;;9.60;31.60;;;;;;6128363;23;20030;-81
2023/02/26 13:57:56;;;;;;;10.13;6.85;;;9.50;30.40;;;;;;6128829;23;20048;-80
2023/02/26 14:00:25;;;;;;;3.28;2.05;;;9.50;30.00;;;;;;6121632;23;20041;-82
2023/02/26 14:03:15;;;;;;;2.42;1.70;;;9.50;29.60;;;;;;6102838;23;20006;-82
2023/02/26 14:05:45;;;;;;;;;;;9.50;30.20;;;;;;6077664;23;20069;-81
2023/02/26 14:08:17;;;;;;;4.13;1.50;;;9.50;30.50;;;;;;6128720;23;19909;-81
2023/02/26 14:10:57;;;;;;;3.47;1.23;;;9.40;29.50;;;;;;6128296;23;20026;-81
2023/02/26 14:13:33;;;;;;;4.35;1.40;;;9.50;29.90;;;;;;6129100;23;20089;-81
2023/02/26 14:16:09;;;;;;;3.00;1.77;;;9.50;29.90;;;;;;6122495;23;20002;-81
2023/02/26 14:18:39;;;;;;;2.97;1.40;;;9.40;29.80;;;;;;6127812;23;20009;-81
2023/02/26 14:21:23;;;;;;;2.25;1.05;;;9.50;30.50;;;;;;6127922;23;20013;-81
2023/02/26 14:23:51;;;;;;;2.42;2.15;;;9.50;29.90;;;;;;6127763;23;20012;-81
2023/02/26 14:26:18;;;;;;;3.13;2.03;;;9.40;29.50;;;;;;6128487;23;20010;-83
2023/02/26 14:28:55;;;;;;;3.92;2.75;;;9.30;29.00;;;;;;6128347;23;20002;-82
2023/02/26 14:31:24;;;;;;;6.07;3.85;;;9.30;29.00;;;;;;6128422;23;20399;-82
2023/02/26 14:34:14;;;;;;;4.80;1.80;;;9.30;28.80;;;;;;6128174;23;19998;-82
2023/02/26 14:36:48;;;;;;;9.38;3.92;;;9.30;28.70;;;;;;6128538;23;20002;-81
2023/02/26 14:39:37;;;;;;;4.30;2.03;;;9.40;28.90;;;;;;6102877;23;20104;-83
2023/02/26 14:42:42;;;;;;;1.75;1.65;;;9.30;27.80;;;;;;6129029;23;20077;-85
2023/02/26 14:45:32;;;;;;;2.28;1.52;;;9.30;28.30;;;;;;6095248;23;20097;-84
2023/02/26 14:48:02;;;;;;;1.42;1.33;;;9.30;29.00;;;;;;6102463;23;20002;-84
2023/02/26 14:51:25;;;;;;;2.33;1.90;;;9.30;28.90;;;;;;6102954;23;20006;-83
2023/02/26 14:54:10;;;;;;;3.30;3.00;;;9.30;28.60;;;;;;5982593;23;20011;-83
2023/02/26 14:57:09;;;;;;;3.80;2.72;;;9.40;28.70;;;;;;5981860;24;20034;-83
2023/02/26 14:59:47;;;;;;;3.40;1.30;;;9.50;29.30;;;;;;6082628;23;20006;-85
2023/02/26 15:02:13;;;;;;;3.45;1.75;;;9.50;28.80;;;;;;6102181;23;20607;-84
2023/02/26 15:04:50;;;;;;;1.60;1.50;;;9.40;28.50;;;;;;6102642;23;20018;-83
2023/02/26 15:07:40;;;;;;;5.25;2.65;;;9.20;28.30;;;;;;6102715;23;20034;-84
2023/02/26 15:10:14;;;;;;;9.27;4.47;;;9.10;29.10;;;;;;6129196;23;20043;-83
2023/02/26 15:12:49;;;;;;;6.60;3.50;;;9.10;28.70;;;;;;6102909;23;20100;-82
2023/02/26 15:15:43;;;;;;;7.03;2.15;;;9.10;29.10;;;;;;6102543;23;20002;-82
2023/02/26 15:18:33;;;;;;;7.50;3.55;;;9.10;29.70;;;;;;6130260;23;20316;-81
2023/02/26 15:21:10;;;;;;;7.32;4.97;;;9.10;29.90;;;;;;6103974;23;20010;-82
2023/02/26 15:23:47;;;;;;;3.30;1.85;;;9.20;30.20;;;;;;6104271;23;20005;-82
2023/02/26 15:26:34;;;;;;;6.45;4.55;;;9.10;30.10;;;;;;6104296;23;20069;-82
2023/02/26 15:29:05;;;;;;;3.85;1.95;;;9.20;30.70;;;;;;6103957;23;20080;-81
2023/02/26 15:31:39;;;;;;;1.40;1.20;;;9.20;30.20;;;;;;6130160;23;20018;-83
2023/02/26 15:34:05;;;;;;;4.20;3.22;;;9.20;30.10;;;;;;6130969;23;19998;-80
2023/02/26 15:36:34;;;;;;;4.70;2.47;;;9.20;30.20;;;;;;6125759;23;20017;-81
2023/02/26 15:39:02;;;;;;;10.32;3.40;;;9.20;30.30;;;;;;6128167;23;20061;-81
2023/02/26 15:41:30;;;;;;;3.33;1.75;;;9.20;30.40;;;;;;6104003;23;20010;-81
2023/02/26 15:44:00;;;;;;;2.85;2.25;;;9.20;30.40;;;;;;6130129;23;20074;-80
2023/02/26 15:46:31;;;;;;;3.95;1.50;;;9.20;30.30;;;;;;6129338;23;20073;-80
2023/02/26 15:49:01;;;;;;;;;;;9.20;30.00;;;;;;6129992;23;20351;-80
2023/02/26 15:51:27;;;;;;;2.05;1.95;;;9.10;30.00;;;;;;6129441;23;19901;-80
2023/02/26 15:53:54;;;;;;;2.92;1.20;;;8.90;30.40;;;;;;6103768;23;20010;-81
2023/02/26 15:56:26;;;;;;;1.98;1.27;;;8.80;29.90;;;;;;6129762;23;20006;-80
2023/02/26 15:58:57;;;;;;;1.55;1.40;;;8.70;29.90;;;;;;6129824;23;20101;-80
2023/02/26 16:01:23;;;;;;;;;;;8.70;29.70;;;;;;6129878;23;20045;-80
2023/02/26 16:03:51;;;;;;;1.58;1.38;;;8.70;29.90;;;;;;6129767;23;19912;-80
2023/02/26 16:06:38;;;;;;;2.13;1.38;;;8.70;30.20;;;;;;6129402;23;20025;-80
2023/02/26 16:09:07;;;;;;;3.63;1.23;;;8.70;30.30;;;;;;6129511;23;20338;-80
2023/02/26 16:11:35;;;;;;;3.28;1.40;;;8.60;30.20;;;;;;6129660;23;20009;-80
2023/02/26 16:14:03;;;;;;;2.17;1.25;;;8.50;29.70;;;;;;6129639;23;20012;-80
2023/02/26 16:16:44;;;;;;;1.63;1.30;;;8.40;29.80;;;;;;6129446;23;20033;-80
2023/02/26 16:19:14;;;;;;;4.50;1.52;;;8.40;30.20;;;;;;6129720;23;20013;-81
2023/02/26 16:21:40;;;;;;;2.33;1.45;;;8.30;29.90;;;;;;6129031;23;20355;-81
2023/02/26 16:24:12;;;;;;;2.10;1.30;;;8.40;29.20;;;;;;6123168;23;20017;-81
2023/02/26 16:26:45;;;;;;;2.38;1.70;;;8.30;29.60;;;;;;6128610;23;20006;-80
2023/02/26 16:29:29;;;;;;;4.25;2.20;;;8.30;30.20;;;;;;6103739;23;20017;-80
2023/02/26 16:31:57;;;;;;;2.13;1.63;;;8.30;30.40;;;;;;6118868;23;20026;-79
2023/02/26 16:34:43;;;;;;;3.38;2.17;;;8.30;30.70;;;;;;6129007;23;20009;-79
2023/02/26 16:37:10;;;;;;;1.95;1.60;;;8.20;30.80;;;;;;6113439;23;20057;-79
2023/02/26 16:39:44;;;;;;;1.52;1.40;;;8.00;29.60;;;;;;6129567;23;19994;-79
2023/02/26 16:42:19;;;;;;;3.70;2.25;;;8.00;30.00;;;;;;6129111;23;19998;-80
2023/02/26 16:44:49;;;;;;;2.45;1.85;;;8.00;30.00;;;;;;6129564;23;20002;-80
2023/02/26 16:47:17;;;;;;;1.75;1.20;;;8.00;30.20;;;;;;6122548;23;20009;-79
2023/02/26 16:49:43;;;;;;;4.35;1.70;;;8.00;28.90;;;;;;6129305;23;20009;-79
2023/02/26 16:52:17;;;;;;;3.72;1.55;;;7.90;29.00;;;;;;6126854;23;20005;-79
2023/02/26 16:54:50;;;;;;;2.40;1.50;;;7.80;29.70;;;;;;6128741;23;20316;-85
2023/02/26 16:57:19;;;;;;;2.42;1.52;;;7.90;29.70;;;;;;6129238;23;20069;-80
2023/02/26 16:59:58;;;;;;;1.77;1.67;;;7.80;29.90;;;;;;6128338;23;20002;-78
2023/02/26 17:02:29;;;;;;;1.40;1.27;;;7.70;30.50;;;;;;6124621;23;20010;-81
2023/02/26 17:05:23;;;;;;;3.58;1.83;;;7.70;30.60;;;;;;6124844;23;20013;-83
2023/02/26 17:07:59;;;;;;;2.55;2.13;;;7.70;30.60;;;;;;6125437;23;20016;-83
2023/02/26 17:10:33;;;;;;;4.75;2.85;;;7.70;30.60;;;;;;6128150;23;20017;-82
2023/02/26 17:13:32;;;;;;;6.57;3.45;;;7.70;31.20;;;;;;6128632;23;20346;-84
2023/02/26 17:16:02;;;;;;;3.22;2.72;;;7.60;31.70;;;;;;6080880;23;20006;-87
2023/02/26 17:18:29;;;;;;;6.65;4.18;;;7.60;31.80;;;;;;6128984;23;20626;-86
2023/02/26 17:20:55;;;;;;;3.40;1.65;;;7.50;32.30;;;;;;6128140;23;20010;-80
2023/02/26 17:23:25;;;;;;;2.95;1.95;;;7.50;32.80;;;;;;6129780;23;20006;-88
2023/02/26 17:25:55;;;;;;;4.95;3.17;;;7.50;33.50;;;;;;6125213;23;20061;-82
2023/02/26 17:28:30;;;;;;;4.22;2.25;;;7.40;34.00;;;;;;6127824;23;20454;-89
2023/02/26 17:30:55;;;;;;;5.35;1.77;;;7.40;34.50;;;;;;6125585;23;20026;-87
2023/02/26 17:33:21;;;;;;;2.20;2.00;;;7.30;34.80;;;;;;6121740;23;20005;-88
2023/02/26 17:35:48;;;;;;;3.53;2.40;;;7.30;35.40;;;;;;6124403;23;20009;-90
2023/02/26 17:38:15;;;;;;;2.25;2.03;;;7.30;36.00;;;;;;6127103;23;20041;-90
2023/02/26 17:40:46;;;;;;;3.15;1.75;;;7.20;36.40;;;;;;6127654;23;20020;-82
2023/02/26 17:43:12;;;;;;;3.35;1.90;;;7.10;37.10;;;;;;6126476;23;20010;-81
2023/02/26 17:45:39;;;;;;;2.35;1.67;;;7.00;37.40;;;;;;6127529;23;20012;-81
2023/02/26 17:48:05;;;;;;;2.50;2.17;;;7.00;37.80;;;;;;6127207;23;20064;-90
2023/02/26 17:50:40;;;;;;;3.22;2.42;;;6.90;38.20;;;;;;6126204;23;20014;-86
2023/02/26 17:53:07;;;;;;;3.63;1.92;;;7.00;38.50;;;;;;6128347;23;20008;-89
2023/02/26 17:55:34;;;;;;;3.35;1.75;;;6.80;38.90;;;;;;6128116;23;20002;-79
2023/02/26 17:58:00;;;;;;;2.22;1.65;;;6.80;39.10;;;;;;6127425;23;20014;-83
2023/02/26 18:00:26;;;;;;;2.60;1.73;;;6.80;39.40;;;;;;6119565;23;20033;-83
2023/02/26 18:02:52;;;;;;;1.70;1.60;;;6.70;39.70;;;;;;6125457;23;20096;-84
2023/02/26 18:05:18;;;;;;;2.75;1.60;;;6.70;40.10;;;;;;6125361;23;20045;-83
2023/02/26 18:07:45;;;;;;;4.00;2.45;;;6.70;40.50;;;;;;6125558;23;20016;-84
2023/02/26 18:10:22;;;;;;;2.10;1.60;;;6.70;41.40;;;;;;6129961;23;20025;-81
2023/02/26 18:12:49;;;;;;;2.17;1.70;;;6.70;41.30;;;;;;6126870;23;20032;-86
2023/02/26 18:15:15;;;;;;;3.60;2.00;;;6.70;41.70;;;;;;6126713;23;20006;-83
2023/02/26 18:17:42;;;;;;;9.27;4.43;;;6.60;42.00;;;;;;6127314;23;20756;-84
2023/02/26 18:20:30;;;;;;;16.38;6.55;;;6.60;42.40;;;;;;6127498;23;20021;-82
2023/02/26 18:22:56;;;;;;;1.83;1.58;;;6.60;42.70;;;;;;6112752;23;20419;-88
2023/02/26 18:25:21;;;;;;;6.45;2.83;;;6.50;43.60;;;;;;6127756;23;20002;-79
2023/02/26 18:27:53;;;;;;;5.78;3.58;;;6.40;43.90;;;;;;6126692;23;20061;-80
2023/02/26 18:30:27;;;;;;;4.13;1.83;;;6.40;44.20;;;;;;6128365;23;19998;-80
2023/02/26 18:32:54;;;;;;;6.63;2.90;;;6.40;44.40;;;;;;6104270;23;20010;-87
2023/02/26 18:35:19;;;;;;;6.57;3.80;;;6.30;44.90;;;;;;6128457;23;20053;-84
2023/02/26 18:37:45;;;;;;;6.63;3.47;;;6.30;44.90;;;;;;6105204;23;20009;-82
2023/02/26 18:40:14;;;;;;;2.10;1.80;;;6.40;45.20;;;;;;6102771;23;20010;-83
2023/02/26 18:42:40;;;;;;;2.50;2.28;;;6.30;45.50;;;;;;6102417;23;20035;-83
2023/02/26 18:45:06;;;;;;;8.40;2.42;;;6.30;45.80;;;;;;6129275;23;20013;-89
2023/02/26 18:47:32;;;;;;;9.70;2.17;;;6.20;45.80;;;;;;6127309;23;20013;-81
2023/02/26 18:49:57;;;;;;;4.93;2.40;;;6.20;45.90;;;;;;6124228;23;19998;-86
2023/02/26 18:52:23;;;;;;;5.68;2.47;;;6.20;46.20;;;;;;6131640;23;20442;-90
2023/02/26 18:54:49;;;;;;;2.70;1.58;;;6.20;46.40;;;;;;6133573;23;20021;-89